Time;durP1;ratioP1;P1;durP2;ratioP2;P2;SDS_P1;SDS_P2;PMS_P1;PMS_P2;Temp;Humidity;BMP_temperature;BMP_pressure;BME280_temperature;BME280_humidity;BME280_pressure;Samples;Min_cycle;Max_cycle;Signal;HPM_P1;HPM_P2
2023/05/25 00:00:34;;;;;;;9.52;3.00;;;12.30;67.00;;;;;;4972485;28;20318;-78
2023/05/25 00:03:02;;;;;;;7.60;2.77;;;12.30;67.00;;;;;;4972944;28;20234;-78
2023/05/25 00:05:29;;;;;;;10.18;2.90;;;12.30;67.20;;;;;;4974438;28;20043;-78
2023/05/25 00:07:56;;;;;;;8.68;2.88;;;12.30;67.30;;;;;;4974230;28;20514;-78
2023/05/25 00:10:24;;;;;;;9.88;2.85;;;12.20;67.10;;;;;;4954773;28;20055;-78
2023/05/25 00:12:51;;;;;;;6.20;2.58;;;12.20;67.30;;;;;;4990575;28;20121;-78
2023/05/25 00:15:20;;;;;;;8.47;3.13;;;12.20;67.20;;;;;;4992468;28;20047;-79
2023/05/25 00:17:47;;;;;;;9.20;2.88;;;12.20;67.30;;;;;;4974472;28;20428;-78
2023/05/25 00:20:14;;;;;;;8.85;3.03;;;12.20;67.40;;;;;;4992203;28;20057;-77
2023/05/25 00:22:44;;;;;;;8.48;2.83;;;12.20;67.30;;;;;;4971884;28;20570;-78
2023/05/25 00:25:11;;;;;;;9.85;2.75;;;12.10;67.50;;;;;;4973909;28;20596;-78
2023/05/25 00:27:38;;;;;;;9.73;2.90;;;12.10;67.60;;;;;;4991228;28;20061;-78
2023/05/25 00:30:07;;;;;;;8.27;2.63;;;12.10;67.50;;;;;;4973500;28;20102;-77
2023/05/25 00:32:35;;;;;;;10.57;2.80;;;12.10;67.50;;;;;;4957449;28;20078;-78
2023/05/25 00:35:02;;;;;;;6.10;2.15;;;12.10;67.60;;;;;;4973706;28;20078;-78
2023/05/25 00:37:29;;;;;;;8.10;3.05;;;12.00;67.70;;;;;;4973910;28;20061;-78
2023/05/25 00:39:56;;;;;;;9.73;2.83;;;12.00;67.70;;;;;;4991432;28;20054;-77
2023/05/25 00:42:23;;;;;;;9.70;3.20;;;12.00;67.80;;;;;;4957494;28;20667;-78
2023/05/25 00:44:51;;;;;;;6.68;2.50;;;12.00;68.00;;;;;;4964916;28;20047;-78
2023/05/25 00:47:18;;;;;;;7.45;2.80;;;11.90;68.00;;;;;;4973027;28;20047;-77
2023/05/25 00:49:47;;;;;;;10.50;2.85;;;11.90;68.10;;;;;;4957033;28;20046;-78
2023/05/25 00:52:15;;;;;;;12.07;2.80;;;11.80;68.20;;;;;;4973310;28;20435;-78
2023/05/25 00:54:47;;;;;;;7.82;2.53;;;11.70;68.30;;;;;;4973470;28;20091;-78
2023/05/25 00:57:16;;;;;;;9.13;3.00;;;11.70;68.40;;;;;;4956927;28;20042;-78
2023/05/25 00:59:46;;;;;;;8.50;3.17;;;11.70;68.50;;;;;;4957272;28;20054;-77
2023/05/25 01:02:16;;;;;;;9.20;2.97;;;11.70;68.40;;;;;;4957357;28;20047;-78
2023/05/25 01:04:45;;;;;;;6.77;2.60;;;11.70;68.40;;;;;;4953213;28;20202;-78
2023/05/25 01:07:17;;;;;;;7.78;2.90;;;11.70;68.40;;;;;;4952272;28;20095;-78
2023/05/25 01:09:45;;;;;;;8.38;2.50;;;11.70;68.40;;;;;;4973428;28;20051;-79
2023/05/25 01:12:16;;;;;;;5.63;2.47;;;11.70;68.40;;;;;;4972052;28;20058;-78
2023/05/25 01:14:45;;;;;;;5.70;2.10;;;11.60;68.30;;;;;;4973351;28;20051;-78
2023/05/25 01:17:14;;;;;;;6.83;2.33;;;11.50;68.10;;;;;;4991004;28;20194;-78
2023/05/25 01:19:44;;;;;;;7.20;2.30;;;11.50;68.10;;;;;;4973003;28;20655;-78
2023/05/25 01:22:19;;;;;;;7.15;2.47;;;11.50;68.20;;;;;;4990965;28;20046;-78
2023/05/25 01:24:49;;;;;;;8.90;3.13;;;11.50;68.30;;;;;;4971975;28;20047;-78
2023/05/25 01:27:22;;;;;;;5.80;2.70;;;11.50;68.30;;;;;;4972033;28;20077;-78
2023/05/25 01:29:50;;;;;;;6.77;2.30;;;11.40;68.40;;;;;;4972953;28;20560;-78
2023/05/25 01:32:18;;;;;;;10.02;2.70;;;11.40;68.40;;;;;;4972834;28;20050;-78
2023/05/25 01:34:46;;;;;;;6.65;2.45;;;11.40;68.50;;;;;;4972857;28;20051;-78
2023/05/25 01:37:16;;;;;;;7.28;2.22;;;11.40;68.20;;;;;;4953186;28;20082;-78
2023/05/25 01:39:43;;;;;;;9.50;2.45;;;11.30;68.20;;;;;;4955479;28;20047;-78
2023/05/25 01:42:11;;;;;;;7.20;2.40;;;11.30;68.40;;;;;;4956919;28;20145;-78
2023/05/25 01:44:39;;;;;;;5.80;2.47;;;11.30;68.50;;;;;;4955378;28;20609;-78
2023/05/25 01:47:21;;;;;;;8.45;2.45;;;11.30;68.50;;;;;;4956765;28;20149;-78
2023/05/25 01:50:00;;;;;;;7.68;2.58;;;11.30;68.40;;;;;;4952599;28;20544;-78
2023/05/25 01:52:32;;;;;;;8.43;2.80;;;11.30;68.50;;;;;;4956794;28;20130;-78
2023/05/25 01:55:05;;;;;;;8.47;2.67;;;11.20;68.40;;;;;;4954059;28;20191;-78
2023/05/25 01:57:36;;;;;;;7.68;2.95;;;11.10;68.50;;;;;;4955797;28;20516;-78
2023/05/25 02:00:04;;;;;;;6.47;2.40;;;11.10;68.50;;;;;;4972687;28;20058;-78
2023/05/25 02:02:42;;;;;;;4.93;2.00;;;11.10;68.30;;;;;;4989983;28;20051;-78
2023/05/25 02:05:09;;;;;;;7.68;2.45;;;11.10;68.50;;;;;;4972669;28;20051;-78
2023/05/25 02:07:38;;;;;;;6.53;2.17;;;11.10;68.60;;;;;;4983379;28;20101;-78
2023/05/25 02:10:06;;;;;;;6.32;2.35;;;11.10;68.90;;;;;;4972213;28;20665;-78
2023/05/25 02:12:33;;;;;;;6.57;2.53;;;11.00;69.00;;;;;;4952833;28;20055;-78
2023/05/25 02:15:00;;;;;;;9.13;3.20;;;11.00;69.20;;;;;;4969530;28;20114;-78
2023/05/25 02:17:28;;;;;;;8.88;3.35;;;11.00;69.30;;;;;;4955625;28;20061;-78
2023/05/25 02:19:56;;;;;;;9.80;3.43;;;10.90;69.50;;;;;;4989939;28;20059;-78
2023/05/25 02:22:23;;;;;;;8.48;3.33;;;10.90;69.80;;;;;;4971627;28;20051;-78
2023/05/25 02:24:51;;;;;;;8.50;3.38;;;10.90;69.80;;;;;;4989502;28;20536;-78
2023/05/25 02:27:18;;;;;;;10.68;3.55;;;10.90;69.80;;;;;;4968656;28;20051;-78
2023/05/25 02:29:45;;;;;;;8.65;3.22;;;10.80;69.60;;;;;;4953151;28;20046;-78
2023/05/25 02:32:12;;;;;;;10.13;3.13;;;10.80;69.80;;;;;;4956092;28;20054;-78
2023/05/25 02:34:39;;;;;;;9.32;3.30;;;10.80;69.80;;;;;;4955901;28;20110;-78
2023/05/25 02:37:07;;;;;;;7.03;2.88;;;10.80;69.80;;;;;;4955531;28;20058;-78
2023/05/25 02:39:35;;;;;;;7.95;3.38;;;10.80;69.70;;;;;;4955549;28;20057;-79
2023/05/25 02:42:03;;;;;;;8.80;3.33;;;10.80;69.90;;;;;;4953828;28;20051;-78
2023/05/25 02:44:31;;;;;;;9.97;3.70;;;10.70;69.90;;;;;;4953619;28;20509;-79
2023/05/25 02:46:58;;;;;;;8.18;3.28;;;10.70;69.70;;;;;;4954046;28;20046;-78
2023/05/25 02:49:25;;;;;;;10.02;3.70;;;10.70;69.80;;;;;;4989469;28;20054;-78
2023/05/25 02:51:53;;;;;;;10.73;3.72;;;10.70;70.10;;;;;;4955405;28;20178;-78
2023/05/25 02:54:20;;;;;;;9.13;3.67;;;10.70;70.20;;;;;;4966940;28;20057;-78
2023/05/25 02:56:47;;;;;;;10.43;3.47;;;10.70;70.20;;;;;;4970900;28;20150;-79
2023/05/25 02:59:18;;;;;;;9.88;3.42;;;10.70;70.30;;;;;;4955775;28;20051;-78
2023/05/25 03:01:46;;;;;;;7.07;3.20;;;10.60;70.60;;;;;;4955471;28;20417;-78
2023/05/25 03:04:14;;;;;;;8.20;3.20;;;10.60;70.40;;;;;;4971332;28;20525;-77
2023/05/25 03:06:44;;;;;;;8.75;3.30;;;10.60;70.30;;;;;;4951180;28;20039;-78
2023/05/25 03:09:15;;;;;;;9.23;3.47;;;10.60;70.50;;;;;;4968261;28;20134;-78
2023/05/25 03:11:42;;;;;;;8.25;3.47;;;10.50;70.40;;;;;;4966732;28;20051;-78
2023/05/25 03:14:13;;;;;;;9.93;3.50;;;10.50;70.40;;;;;;4949204;28;20051;-78
2023/05/25 03:16:43;;;;;;;7.47;3.30;;;10.50;70.50;;;;;;4970947;28;20059;-78
2023/05/25 03:19:11;;;;;;;7.18;3.03;;;10.50;70.50;;;;;;4971171;28;20050;-78
2023/05/25 03:21:38;;;;;;;8.07;3.17;;;10.50;70.40;;;;;;4971238;28;20153;-78
2023/05/25 03:24:05;;;;;;;9.45;3.60;;;10.50;70.40;;;;;;4971023;28;20191;-78
2023/05/25 03:26:33;;;;;;;7.63;3.53;;;10.50;70.50;;;;;;4969083;28;20094;-79
2023/05/25 03:29:02;;;;;;;9.13;3.70;;;10.50;70.50;;;;;;4968310;28;20146;-78
2023/05/25 03:31:29;;;;;;;7.68;3.42;;;10.50;70.60;;;;;;4954687;28;20049;-78
2023/05/25 03:33:58;;;;;;;9.37;3.67;;;10.50;70.60;;;;;;4954868;28;20525;-78
2023/05/25 03:36:26;;;;;;;6.85;2.80;;;10.50;70.60;;;;;;4966559;28;20461;-79
2023/05/25 03:38:53;;;;;;;7.80;3.20;;;10.50;70.40;;;;;;4949642;28;20501;-78
2023/05/25 03:41:20;;;;;;;6.70;2.88;;;10.40;70.50;;;;;;4970802;28;20047;-78
2023/05/25 03:43:47;;;;;;;7.38;3.58;;;10.40;70.70;;;;;;4954373;28;20055;-78
2023/05/25 03:46:14;;;;;;;7.93;3.43;;;10.40;70.70;;;;;;4953976;28;20047;-79
2023/05/25 03:48:43;;;;;;;7.32;3.05;;;10.40;70.50;;;;;;4969406;28;20533;-78
2023/05/25 03:51:11;;;;;;;7.13;3.17;;;10.40;70.60;;;;;;4954220;28;20050;-79
2023/05/25 03:53:43;;;;;;;8.10;3.42;;;10.40;71.00;;;;;;4971445;28;20051;-78
2023/05/25 03:56:09;;;;;;;6.78;3.03;;;10.40;70.90;;;;;;4952828;28;20051;-78
2023/05/25 03:58:37;;;;;;;7.70;3.00;;;10.40;70.60;;;;;;4968021;28;20130;-78
2023/05/25 04:01:04;;;;;;;7.03;2.90;;;10.30;70.20;;;;;;4970497;28;20062;-78
2023/05/25 04:03:32;;;;;;;6.47;3.25;;;10.30;70.00;;;;;;4954558;28;20345;-78
2023/05/25 04:06:00;;;;;;;8.00;3.42;;;10.30;70.10;;;;;;4970671;28;20133;-78
2023/05/25 04:08:29;;;;;;;8.73;3.60;;;10.30;70.20;;;;;;4954561;28;20046;-78
2023/05/25 04:10:56;;;;;;;8.30;3.00;;;10.30;70.50;;;;;;4954240;28;20484;-78
2023/05/25 04:13:24;;;;;;;9.02;3.20;;;10.30;70.60;;;;;;4954549;28;20075;-79
2023/05/25 04:15:51;;;;;;;7.47;3.42;;;10.30;70.50;;;;;;4970632;28;20054;-79
2023/05/25 04:18:22;;;;;;;11.02;3.50;;;10.30;70.70;;;;;;4949613;28;20129;-78
2023/05/25 04:20:49;;;;;;;9.15;3.38;;;10.30;70.70;;;;;;4953814;28;20051;-79
2023/05/25 04:23:20;;;;;;;11.20;3.70;;;10.20;70.60;;;;;;4969005;28;20081;-78
2023/05/25 04:25:49;;;;;;;8.73;3.38;;;10.20;70.60;;;;;;4967385;28;20613;-78
2023/05/25 04:28:17;;;;;;;10.02;3.60;;;10.20;71.20;;;;;;4958331;28;20048;-78
2023/05/25 04:30:55;;;;;;;9.70;3.55;;;10.20;71.20;;;;;;4957876;28;20713;-78
2023/05/25 04:33:43;;;;;;;8.80;3.72;;;10.20;71.20;;;;;;4968642;28;20154;-78
2023/05/25 04:36:18;;;;;;;9.70;3.53;;;10.20;71.40;;;;;;4951391;28;20417;-78
2023/05/25 04:38:46;;;;;;;10.18;3.60;;;10.20;71.40;;;;;;4967553;28;20058;-78
2023/05/25 04:41:15;;;;;;;11.30;4.03;;;10.10;71.00;;;;;;4949390;28;20676;-78
2023/05/25 04:43:49;;;;;;;11.23;3.65;;;10.10;71.10;;;;;;4946823;28;20121;-78
2023/05/25 04:46:16;;;;;;;9.38;3.78;;;10.10;71.80;;;;;;4960767;28;20053;-78
2023/05/25 04:48:44;;;;;;;11.27;4.07;;;10.10;71.40;;;;;;4955445;28;20548;-78
2023/05/25 04:51:11;;;;;;;13.63;4.10;;;10.10;71.40;;;;;;4953890;28;20480;-79
2023/05/25 04:53:38;;;;;;;9.60;3.92;;;10.10;71.40;;;;;;4956012;28;20146;-78
2023/05/25 04:56:05;;;;;;;10.50;4.07;;;10.10;71.50;;;;;;4956822;28;20053;-78
2023/05/25 04:58:33;;;;;;;11.90;4.40;;;10.10;71.80;;;;;;4947827;28;20091;-78
2023/05/25 05:01:01;;;;;;;12.40;4.10;;;10.20;72.00;;;;;;4974393;28;20662;-78
2023/05/25 05:03:28;;;;;;;10.35;4.05;;;10.20;72.20;;;;;;4970208;28;20074;-79
2023/05/25 05:05:55;;;;;;;12.00;4.50;;;10.20;72.90;;;;;;4968505;28;20051;-79
2023/05/25 05:08:26;;;;;;;11.77;4.82;;;10.20;73.10;;;;;;4951495;28;20043;-79
2023/05/25 05:10:53;;;;;;;15.75;5.13;;;10.20;73.00;;;;;;4957001;28;20054;-78
2023/05/25 05:13:20;;;;;;;12.57;5.00;;;10.20;72.90;;;;;;4972620;28;20057;-79
2023/05/25 05:15:49;;;;;;;12.30;5.68;;;10.20;72.90;;;;;;4953147;28;20046;-79
2023/05/25 05:18:16;;;;;;;13.35;5.28;;;10.20;73.00;;;;;;4969186;28;20129;-78
2023/05/25 05:20:43;;;;;;;13.25;4.90;;;10.30;74.00;;;;;;4953135;28;20081;-78
2023/05/25 05:23:11;;;;;;;13.00;5.10;;;10.30;73.30;;;;;;4960653;28;20046;-78
2023/05/25 05:25:38;;;;;;;14.57;5.03;;;10.30;73.70;;;;;;4989280;28;20054;-78
2023/05/25 05:28:05;;;;;;;14.07;5.15;;;10.30;74.10;;;;;;4952995;28;20917;-79
2023/05/25 05:30:38;;;;;;;12.32;5.32;;;10.30;74.60;;;;;;4955436;28;20925;-78
2023/05/25 05:33:06;;;;;;;16.05;5.32;;;10.30;74.40;;;;;;4955291;28;20908;-78
2023/05/25 05:35:39;;;;;;;12.88;5.63;;;10.40;74.70;;;;;;4945191;28;20054;-78
2023/05/25 05:38:11;;;;;;;16.60;5.63;;;10.40;74.70;;;;;;4971419;28;20061;-78
2023/05/25 05:40:38;;;;;;;14.85;5.97;;;10.40;75.00;;;;;;4952082;28;20086;-78
2023/05/25 05:43:05;;;;;;;17.23;5.50;;;10.40;75.40;;;;;;4960780;28;20163;-78
2023/05/25 05:45:32;;;;;;;15.40;6.07;;;10.50;75.60;;;;;;4945088;28;20153;-78
2023/05/25 05:47:59;;;;;;;15.63;5.78;;;10.50;75.30;;;;;;4962957;28;20048;-78
2023/05/25 05:50:29;;;;;;;15.93;5.80;;;10.60;76.60;;;;;;4966869;28;20035;-78
2023/05/25 05:52:56;;;;;;;12.60;5.47;;;10.60;76.90;;;;;;4977204;28;20055;-78
2023/05/25 05:55:23;;;;;;;15.55;6.22;;;10.70;76.90;;;;;;4979057;28;20059;-78
2023/05/25 05:57:52;;;;;;;15.98;5.82;;;10.70;76.60;;;;;;4946340;28;20074;-78
2023/05/25 06:00:21;;;;;;;13.52;5.90;;;10.70;76.90;;;;;;4951205;28;20079;-78
2023/05/25 06:02:51;;;;;;;17.33;5.90;;;10.80;76.70;;;;;;4947792;28;20138;-78
2023/05/25 06:05:21;;;;;;;16.50;6.00;;;10.80;76.70;;;;;;4963400;28;20530;-78
2023/05/25 06:07:50;;;;;;;15.02;5.93;;;10.80;76.70;;;;;;4948394;28;20058;-79
2023/05/25 06:10:19;;;;;;;14.40;5.35;;;10.90;76.30;;;;;;4950720;28;20097;-78
2023/05/25 06:12:47;;;;;;;16.98;6.10;;;10.90;76.50;;;;;;4964360;28;20077;-79
2023/05/25 06:15:14;;;;;;;19.33;6.10;;;11.00;76.80;;;;;;4963264;28;20050;-79
2023/05/25 06:17:42;;;;;;;13.27;5.85;;;11.00;76.70;;;;;;4953822;28;20047;-78
2023/05/25 06:20:11;;;;;;;15.02;6.10;;;11.10;77.60;;;;;;4946810;28;20046;-79
2023/05/25 06:22:38;;;;;;;15.80;5.30;;;11.10;77.50;;;;;;4948812;28;20180;-79
2023/05/25 06:25:09;;;;;;;9.32;3.90;;;11.10;77.80;;;;;;4950809;28;20968;-83
2023/05/25 06:27:36;;;;;;;11.57;4.33;;;11.20;77.80;;;;;;4945915;28;20157;-83
2023/05/25 06:30:04;;;;;;;12.45;4.57;;;11.30;78.00;;;;;;4951128;28;20065;-83
2023/05/25 06:32:31;;;;;;;14.68;4.82;;;11.30;78.50;;;;;;4964498;28;20061;-83
2023/05/25 06:35:01;;;;;;;11.70;4.50;;;11.40;78.90;;;;;;4967690;28;20051;-83
2023/05/25 06:37:33;;;;;;;13.20;4.78;;;11.50;78.90;;;;;;4954359;28;20157;-83
2023/05/25 06:40:02;;;;;;;11.90;3.77;;;11.50;79.10;;;;;;4952046;28;20589;-83
2023/05/25 06:42:31;;;;;;;10.73;2.92;;;11.60;79.10;;;;;;4954483;28;20055;-82
2023/05/25 06:45:02;;;;;;;10.15;2.95;;;11.70;79.00;;;;;;4960663;28;20055;-83
2023/05/25 06:47:29;;;;;;;9.90;3.17;;;11.70;79.00;;;;;;4951679;28;20498;-83
2023/05/25 06:49:57;;;;;;;12.23;3.22;;;11.70;78.40;;;;;;4952586;28;20498;-83
2023/05/25 06:52:26;;;;;;;13.50;3.27;;;11.80;78.50;;;;;;4984048;28;20145;-83
2023/05/25 06:54:54;;;;;;;10.40;3.00;;;11.90;78.90;;;;;;4972231;28;20118;-83
2023/05/25 06:57:21;;;;;;;11.48;3.00;;;11.90;78.80;;;;;;4970999;28;20059;-82
2023/05/25 06:59:50;;;;;;;11.75;2.72;;;12.00;78.70;;;;;;4971796;28;20058;-83
2023/05/25 07:02:19;;;;;;;8.43;2.60;;;12.10;78.90;;;;;;4970476;28;20055;-83
2023/05/25 07:04:46;;;;;;;10.73;3.10;;;12.10;78.70;;;;;;4971074;28;20051;-83
2023/05/25 07:07:14;;;;;;;9.25;2.42;;;12.20;78.60;;;;;;4970042;28;20058;-84
2023/05/25 07:09:40;;;;;;;8.15;2.40;;;12.30;78.40;;;;;;4959751;28;20150;-83
2023/05/25 07:12:09;;;;;;;8.45;2.30;;;12.40;78.00;;;;;;4963265;28;20055;-83
2023/05/25 07:14:37;;;;;;;9.98;2.72;;;12.50;77.60;;;;;;4952140;28;20050;-83
2023/05/25 07:17:05;;;;;;;11.20;2.33;;;12.50;77.60;;;;;;4955138;28;20774;-83
2023/05/25 07:19:32;;;;;;;10.77;1.92;;;12.50;77.30;;;;;;4951343;28;20058;-82
2023/05/25 07:22:00;;;;;;;11.85;2.72;;;12.50;76.90;;;;;;4964997;28;20055;-81
2023/05/25 07:24:27;;;;;;;9.82;2.90;;;12.60;76.70;;;;;;4951324;28;20860;-83
2023/05/25 07:26:54;;;;;;;12.77;2.80;;;12.70;76.70;;;;;;4965356;28;21046;-82
2023/05/25 07:29:21;;;;;;;9.30;2.63;;;12.80;76.40;;;;;;4972411;28;20413;-83
2023/05/25 07:31:48;;;;;;;11.52;2.88;;;12.80;76.40;;;;;;4962245;28;20997;-82
2023/05/25 07:34:16;;;;;;;16.48;2.90;;;12.90;76.20;;;;;;4962491;28;20054;-82
2023/05/25 07:36:44;;;;;;;10.93;2.95;;;12.90;76.00;;;;;;4970010;28;20082;-82
2023/05/25 07:39:11;;;;;;;9.70;2.55;;;13.00;76.00;;;;;;4970174;28;20058;-83
2023/05/25 07:41:38;;;;;;;11.13;2.60;;;13.00;76.00;;;;;;4981833;28;20059;-83
2023/05/25 07:44:05;;;;;;;11.13;2.42;;;13.10;75.90;;;;;;4959896;28;20097;-85
2023/05/25 07:46:32;;;;;;;10.73;2.70;;;13.10;75.30;;;;;;4964579;28;20098;-80
2023/05/25 07:49:02;;;;;;;12.30;2.65;;;13.10;75.20;;;;;;4970450;28;20495;-81
2023/05/25 07:51:31;;;;;;;10.52;2.75;;;13.20;75.10;;;;;;4967847;28;20040;-83
2023/05/25 07:53:58;;;;;;;10.97;2.60;;;13.20;75.10;;;;;;4958908;28;20114;-83
2023/05/25 07:56:25;;;;;;;9.23;2.45;;;13.30;74.50;;;;;;4951589;28;20066;-83
2023/05/25 07:58:52;;;;;;;10.85;2.47;;;13.30;74.20;;;;;;4950705;28;20055;-83
2023/05/25 08:01:20;;;;;;;8.82;1.83;;;13.30;73.90;;;;;;4950000;28;20106;-82
2023/05/25 08:03:47;;;;;;;11.23;2.78;;;13.40;73.40;;;;;;4950176;28;20047;-83
2023/05/25 08:06:14;;;;;;;11.40;2.63;;;13.40;73.50;;;;;;4950026;28;20067;-83
2023/05/25 08:08:45;;;;;;;11.73;2.38;;;13.50;73.20;;;;;;4950466;28;20056;-83
2023/05/25 08:11:12;;;;;;;11.63;2.65;;;13.50;72.90;;;;;;4949869;28;20126;-83
2023/05/25 08:13:39;;;;;;;12.23;2.33;;;13.50;72.70;;;;;;4966500;28;20051;-82
2023/05/25 08:16:07;;;;;;;9.00;2.40;;;13.60;72.60;;;;;;4954724;28;20066;-83
2023/05/25 08:18:34;;;;;;;12.33;2.53;;;13.60;72.10;;;;;;4954420;28;20071;-83
2023/05/25 08:21:01;;;;;;;11.10;2.42;;;13.60;71.90;;;;;;4957820;28;20420;-84
2023/05/25 08:23:28;;;;;;;11.68;2.92;;;13.70;71.60;;;;;;4966631;28;21014;-82
2023/05/25 08:25:57;;;;;;;11.43;2.58;;;13.70;71.50;;;;;;4965674;28;20808;-81
2023/05/25 08:28:24;;;;;;;11.88;2.72;;;13.80;71.40;;;;;;4970567;28;20149;-81
2023/05/25 08:30:52;;;;;;;12.33;2.37;;;13.80;71.50;;;;;;4953192;28;20055;-82
2023/05/25 08:33:19;;;;;;;11.00;2.80;;;13.90;71.50;;;;;;4962582;28;20043;-82
2023/05/25 08:35:48;;;;;;;10.02;2.83;;;13.90;71.40;;;;;;4967535;28;20589;-84
2023/05/25 08:38:15;;;;;;;11.90;3.00;;;13.90;71.30;;;;;;4967705;28;20162;-82
2023/05/25 08:40:45;;;;;;;11.73;2.53;;;14.00;71.10;;;;;;4971664;28;20082;-80
2023/05/25 08:43:13;;;;;;;12.33;2.53;;;14.00;70.90;;;;;;4957519;28;20054;-81
2023/05/25 08:45:43;;;;;;;11.98;2.78;;;14.10;70.70;;;;;;4973583;28;20165;-81
2023/05/25 08:48:13;;;;;;;10.35;2.58;;;14.10;70.50;;;;;;4973957;28;20051;-79
2023/05/25 08:50:42;;;;;;;10.70;2.83;;;14.10;70.70;;;;;;4972394;28;20105;-79
2023/05/25 08:53:11;;;;;;;11.15;2.40;;;14.20;70.40;;;;;;4954595;28;20119;-79
2023/05/25 08:55:41;;;;;;;11.07;2.80;;;14.20;70.40;;;;;;4956377;28;20050;-80
2023/05/25 08:58:16;;;;;;;10.05;2.55;;;14.30;70.40;;;;;;4975185;28;20047;-78
2023/05/25 09:00:50;;;;;;;13.77;2.70;;;14.30;70.40;;;;;;4972047;28;20055;-79
2023/05/25 09:03:18;;;;;;;13.68;2.60;;;14.30;70.20;;;;;;4971146;28;20051;-80
2023/05/25 09:05:45;;;;;;;10.73;2.85;;;14.40;70.10;;;;;;4972808;28;20050;-83
2023/05/25 09:08:13;;;;;;;10.23;2.60;;;14.40;70.00;;;;;;4961214;28;20561;-84
2023/05/25 09:10:42;;;;;;;9.95;2.92;;;14.40;69.90;;;;;;4954068;28;20138;-84
2023/05/25 09:13:09;;;;;;;13.13;3.00;;;14.40;69.80;;;;;;4956691;28;20061;-83
2023/05/25 09:15:37;;;;;;;14.32;3.33;;;14.50;69.80;;;;;;4973081;28;20050;-85
2023/05/25 09:18:04;;;;;;;12.77;3.05;;;14.50;69.40;;;;;;4957458;28;20059;-81
2023/05/25 09:20:32;;;;;;;13.83;2.63;;;14.50;69.20;;;;;;4976773;28;20059;-85
2023/05/25 09:22:59;;;;;;;12.85;2.67;;;14.60;68.70;;;;;;4952198;28;20051;-82
2023/05/25 09:25:28;;;;;;;11.85;2.83;;;14.60;68.40;;;;;;4968000;28;20050;-81
2023/05/25 09:27:57;;;;;;;17.08;2.85;;;14.60;68.50;;;;;;4980311;28;20127;-79
2023/05/25 09:30:24;;;;;;;14.23;3.03;;;14.60;68.20;;;;;;4988709;28;20988;-77
2023/05/25 09:32:53;;;;;;;12.33;2.70;;;14.60;68.30;;;;;;4971368;28;20137;-82
2023/05/25 09:35:23;;;;;;;14.38;2.60;;;14.70;67.80;;;;;;4956810;28;20158;-83
2023/05/25 09:37:54;;;;;;;15.50;3.03;;;14.70;67.60;;;;;;4956549;28;20146;-83
2023/05/25 09:40:21;;;;;;;18.13;3.08;;;14.70;66.80;;;;;;4972954;28;20051;-83
2023/05/25 09:42:50;;;;;;;16.45;2.78;;;14.70;66.90;;;;;;4972189;28;21006;-82
2023/05/25 09:45:17;;;;;;;26.10;3.83;;;14.80;66.70;;;;;;4971767;28;20124;-81
2023/05/25 09:47:44;;;;;;;12.45;2.40;;;14.80;66.20;;;;;;4971794;28;20066;-83
2023/05/25 09:50:13;;;;;;;14.40;3.42;;;14.80;66.20;;;;;;4955265;28;20134;-83
2023/05/25 09:52:41;;;;;;;12.13;2.85;;;14.90;66.50;;;;;;4967633;28;20063;-84
2023/05/25 09:55:11;;;;;;;18.13;4.22;;;14.90;66.30;;;;;;4972209;28;20065;-82
2023/05/25 09:57:39;;;;;;;14.73;2.90;;;15.00;66.30;;;;;;4971227;28;20063;-82
2023/05/25 10:00:09;;;;;;;12.98;2.90;;;15.00;65.80;;;;;;4971426;28;20158;-80
2023/05/25 10:02:38;;;;;;;15.30;2.95;;;15.00;65.80;;;;;;4961632;28;20058;-80
2023/05/25 10:05:06;;;;;;;13.10;2.80;;;15.00;65.70;;;;;;4966867;28;20054;-81
2023/05/25 10:07:37;;;;;;;12.98;2.40;;;15.10;65.90;;;;;;4966557;28;20062;-81
2023/05/25 10:10:07;;;;;;;13.33;2.83;;;15.20;66.10;;;;;;4960992;28;20778;-81
2023/05/25 10:12:34;;;;;;;17.35;3.47;;;15.20;65.80;;;;;;4967088;28;20133;-81
2023/05/25 10:15:04;;;;;;;15.77;3.33;;;15.30;65.50;;;;;;4970238;28;20062;-81
2023/05/25 10:17:35;;;;;;;20.02;3.33;;;15.30;65.40;;;;;;4970287;28;20062;-81
2023/05/25 10:20:07;;;;;;;16.48;3.00;;;15.30;65.40;;;;;;4966406;28;20143;-81
2023/05/25 10:22:41;;;;;;;13.23;2.90;;;15.40;65.60;;;;;;4969737;28;20055;-81
2023/05/25 10:25:13;;;;;;;14.63;2.75;;;15.40;64.80;;;;;;4965522;28;20050;-80
2023/05/25 10:27:46;;;;;;;11.27;2.67;;;15.50;64.90;;;;;;4953988;28;20159;-82
2023/05/25 10:30:15;;;;;;;15.75;3.00;;;15.50;64.30;;;;;;4970405;28;20047;-80
2023/05/25 10:32:44;;;;;;;13.20;3.20;;;15.60;64.50;;;;;;4950192;28;20134;-79
2023/05/25 10:35:12;;;;;;;14.50;2.80;;;15.60;64.40;;;;;;4950934;28;20573;-80
2023/05/25 10:37:42;;;;;;;14.85;2.92;;;15.60;64.30;;;;;;4950304;28;20864;-78
2023/05/25 10:40:10;;;;;;;12.57;2.90;;;15.60;64.00;;;;;;4960160;28;20062;-80
2023/05/25 10:42:37;;;;;;;11.50;2.50;;;15.70;63.90;;;;;;4970529;28;20055;-79
2023/05/25 10:45:07;;;;;;;11.95;2.60;;;15.80;64.30;;;;;;4970880;28;20061;-80
2023/05/25 10:47:36;;;;;;;15.63;2.90;;;15.80;64.10;;;;;;4970767;28;20608;-81
2023/05/25 10:50:04;;;;;;;13.75;2.83;;;15.80;63.20;;;;;;4971093;28;20512;-81
2023/05/25 10:52:32;;;;;;;11.57;2.50;;;15.80;62.70;;;;;;4955086;28;20178;-77
2023/05/25 10:55:03;;;;;;;11.43;3.03;;;15.80;62.60;;;;;;4988797;28;20055;-79
2023/05/25 10:57:30;;;;;;;17.27;3.25;;;15.80;62.30;;;;;;4981960;28;20051;-80
2023/05/25 11:00:05;;;;;;;15.67;2.60;;;15.90;61.90;;;;;;4988123;28;20122;-80
2023/05/25 11:02:49;;;;;;;13.75;3.10;;;16.00;62.20;;;;;;4985137;28;20058;-77
2023/05/25 11:05:37;;;;;;;13.50;2.72;;;16.00;62.50;;;;;;4986781;28;20065;-76
2023/05/25 11:08:05;;;;;;;17.27;3.00;;;16.00;61.80;;;;;;4981335;28;20054;-76
2023/05/25 11:10:58;;;;;;;14.10;2.85;;;16.10;62.10;;;;;;4964005;28;20150;-77
2023/05/25 11:13:37;;;;;;;14.90;3.20;;;16.10;62.50;;;;;;4959215;28;20051;-75
2023/05/25 11:16:23;;;;;;;11.52;2.53;;;16.20;62.40;;;;;;4987216;28;20063;-76
2023/05/25 11:18:52;;;;;;;13.10;2.90;;;16.20;62.60;;;;;;4985463;28;20051;-77
2023/05/25 11:21:42;;;;;;;43.33;5.43;;;16.30;62.50;;;;;;4986263;28;20058;-77
2023/05/25 11:24:14;;;;;;;17.10;3.50;;;16.40;62.10;;;;;;4980760;28;20063;-76
2023/05/25 11:26:58;;;;;;;13.60;3.30;;;16.40;62.20;;;;;;4968856;28;20053;-77
2023/05/25 11:29:25;;;;;;;18.33;3.15;;;16.40;62.20;;;;;;4954205;28;20568;-76
2023/05/25 11:31:54;;;;;;;13.70;3.15;;;16.50;61.80;;;;;;4971086;28;20054;-80
2023/05/25 11:34:24;;;;;;;15.48;3.00;;;16.60;61.20;;;;;;4970805;28;20051;-75
2023/05/25 11:36:54;;;;;;;11.23;2.63;;;16.60;60.90;;;;;;4988799;28;20058;-77
2023/05/25 11:39:22;;;;;;;17.57;3.33;;;16.70;61.10;;;;;;4971367;28;20494;-79
2023/05/25 11:41:54;;;;;;;17.20;3.33;;;16.70;60.80;;;;;;4988372;28;20074;-75
2023/05/25 11:44:30;;;;;;;14.10;3.05;;;16.80;61.00;;;;;;4961099;28;20455;-76
2023/05/25 11:47:00;;;;;;;15.00;3.00;;;16.80;61.80;;;;;;4967112;28;20134;-79
2023/05/25 11:49:27;;;;;;;12.07;3.20;;;16.80;59.80;;;;;;4970095;28;20073;-79
2023/05/25 11:51:57;;;;;;;16.00;3.37;;;16.90;60.10;;;;;;4966058;28;20055;-76
2023/05/25 11:54:25;;;;;;;12.50;3.30;;;16.90;59.70;;;;;;4984707;28;20492;-74
2023/05/25 11:56:55;;;;;;;13.90;2.83;;;17.00;59.20;;;;;;4982938;28;20148;-72
2023/05/25 11:59:22;;;;;;;14.30;3.63;;;17.00;59.30;;;;;;4973654;28;20051;-75
2023/05/25 12:01:57;;;;;;;13.80;3.08;;;17.00;60.20;;;;;;4986136;28;20058;-74
2023/05/25 12:04:25;;;;;;;15.63;3.33;;;17.00;59.50;;;;;;4979342;28;20130;-74
2023/05/25 12:06:52;;;;;;;16.35;3.83;;;17.10;59.60;;;;;;4968659;28;20058;-74
2023/05/25 12:09:20;;;;;;;12.65;2.67;;;17.20;59.60;;;;;;4987156;28;21051;-75
2023/05/25 12:11:48;;;;;;;13.57;3.25;;;17.20;59.00;;;;;;4972235;28;20478;-75
2023/05/25 12:14:15;;;;;;;14.27;3.33;;;17.20;59.10;;;;;;4956361;28;20142;-78
2023/05/25 12:16:43;;;;;;;15.80;3.03;;;17.20;59.50;;;;;;4970823;28;20050;-77
2023/05/25 12:19:11;;;;;;;12.13;3.30;;;17.30;59.00;;;;;;4979223;28;20061;-78
2023/05/25 12:21:40;;;;;;;13.40;3.35;;;17.40;58.40;;;;;;4995942;28;20051;-77
2023/05/25 12:24:08;;;;;;;14.40;3.20;;;17.40;58.50;;;;;;4976770;28;20053;-74
2023/05/25 12:26:47;;;;;;;18.33;3.88;;;17.50;58.80;;;;;;4948400;28;20880;-75
2023/05/25 12:29:14;;;;;;;15.73;3.60;;;17.50;58.90;;;;;;4970541;28;20109;-74
2023/05/25 12:31:41;;;;;;;14.07;3.08;;;17.60;59.00;;;;;;4989197;28;20065;-75
2023/05/25 12:34:11;;;;;;;16.33;3.63;;;17.60;59.00;;;;;;4972215;28;20876;-74
2023/05/25 12:36:43;;;;;;;13.20;3.00;;;17.80;58.60;;;;;;4972665;28;20061;-74
2023/05/25 12:39:11;;;;;;;20.55;2.92;;;17.80;58.40;;;;;;4963362;28;20572;-74
2023/05/25 12:41:46;;;;;;;11.77;3.27;;;17.80;57.30;;;;;;4973192;28;20063;-74
2023/05/25 12:44:22;;;;;;;15.85;3.70;;;17.90;57.70;;;;;;4987565;28;20082;-74
2023/05/25 12:46:50;;;;;;;10.85;2.95;;;18.00;57.60;;;;;;4981698;28;20838;-74
2023/05/25 12:49:27;;;;;;;18.15;3.85;;;18.00;57.60;;;;;;4952723;28;20497;-75